sensor_id;sensor_type;location;lat;lon;timestamp;P1;durP1;ratioP1;P2;durP2;ratioP2
2672;SDS011;1346;51.558;6.996;2022-10-16T00:01:25;7.83;;;3.87;;
2672;SDS011;1346;51.558;6.996;2022-10-16T00:03:54;12.20;;;3.27;;
2672;SDS011;1346;51.558;6.996;2022-10-16T00:06:22;4.90;;;3.00;;
2672;SDS011;1346;51.558;6.996;2022-10-16T00:08:51;7.67;;;3.20;;
2672;SDS011;1346;51.558;6.996;2022-10-16T00:11:19;3.93;;;3.00;;
2672;SDS011;1346;51.558;6.996;2022-10-16T00:13:48;8.70;;;5.80;;
2672;SDS011;1346;51.558;6.996;2022-10-16T00:16:18;6.43;;;4.63;;
2672;SDS011;1346;51.558;6.996;2022-10-16T00:18:45;8.83;;;3.93;;
2672;SDS011;1346;51.558;6.996;2022-10-16T00:21:14;4.10;;;3.07;;
2672;SDS011;1346;51.558;6.996;2022-10-16T00:23:43;4.97;;;2.90;;
2672;SDS011;1346;51.558;6.996;2022-10-16T00:26:16;5.93;;;3.80;;
2672;SDS011;1346;51.558;6.996;2022-10-16T00:28:45;6.03;;;3.57;;
2672;SDS011;1346;51.558;6.996;2022-10-16T00:31:12;7.10;;;4.00;;
2672;SDS011;1346;51.558;6.996;2022-10-16T00:33:40;5.03;;;3.27;;
2672;SDS011;1346;51.558;6.996;2022-10-16T00:36:09;8.67;;;4.13;;
2672;SDS011;1346;51.558;6.996;2022-10-16T00:38:38;5.50;;;3.43;;
2672;SDS011;1346;51.558;6.996;2022-10-16T00:41:06;5.23;;;3.37;;
2672;SDS011;1346;51.558;6.996;2022-10-16T00:43:39;5.93;;;2.93;;
2672;SDS011;1346;51.558;6.996;2022-10-16T00:46:11;4.10;;;3.07;;
2672;SDS011;1346;51.558;6.996;2022-10-16T00:48:45;6.60;;;3.73;;
2672;SDS011;1346;51.558;6.996;2022-10-16T00:51:17;4.70;;;3.10;;
2672;SDS011;1346;51.558;6.996;2022-10-16T00:53:49;5.50;;;3.33;;
2672;SDS011;1346;51.558;6.996;2022-10-16T00:56:16;8.60;;;3.27;;
2672;SDS011;1346;51.558;6.996;2022-10-16T00:58:45;6.67;;;3.23;;
2672;SDS011;1346;51.558;6.996;2022-10-16T01:01:12;4.97;;;3.57;;
2672;SDS011;1346;51.558;6.996;2022-10-16T01:03:39;6.50;;;3.00;;
2672;SDS011;1346;51.558;6.996;2022-10-16T01:06:09;5.33;;;3.10;;
2672;SDS011;1346;51.558;6.996;2022-10-16T01:08:51;7.00;;;3.60;;
2672;SDS011;1346;51.558;6.996;2022-10-16T01:11:28;8.57;;;3.50;;
2672;SDS011;1346;51.558;6.996;2022-10-16T01:14:11;7.37;;;3.73;;
2672;SDS011;1346;51.558;6.996;2022-10-16T01:16:48;6.13;;;3.37;;
2672;SDS011;1346;51.558;6.996;2022-10-16T01:19:25;6.27;;;3.00;;
2672;SDS011;1346;51.558;6.996;2022-10-16T01:22:06;3.60;;;2.90;;
2672;SDS011;1346;51.558;6.996;2022-10-16T01:24:37;3.37;;;2.90;;
2672;SDS011;1346;51.558;6.996;2022-10-16T01:27:11;5.90;;;2.73;;
2672;SDS011;1346;51.558;6.996;2022-10-16T01:29:42;7.10;;;3.13;;
2672;SDS011;1346;51.558;6.996;2022-10-16T01:32:24;7.00;;;3.27;;
2672;SDS011;1346;51.558;6.996;2022-10-16T01:34:58;4.67;;;2.60;;
2672;SDS011;1346;51.558;6.996;2022-10-16T01:37:32;5.17;;;2.97;;
2672;SDS011;1346;51.558;6.996;2022-10-16T01:40:05;5.07;;;2.93;;
2672;SDS011;1346;51.558;6.996;2022-10-16T01:42:37;3.90;;;2.70;;
2672;SDS011;1346;51.558;6.996;2022-10-16T01:45:08;3.63;;;2.30;;
2672;SDS011;1346;51.558;6.996;2022-10-16T01:47:39;3.00;;;2.57;;
2672;SDS011;1346;51.558;6.996;2022-10-16T01:50:06;4.83;;;2.90;;
2672;SDS011;1346;51.558;6.996;2022-10-16T01:52:35;5.40;;;2.30;;
2672;SDS011;1346;51.558;6.996;2022-10-16T01:55:08;4.30;;;2.33;;
2672;SDS011;1346;51.558;6.996;2022-10-16T01:57:39;4.50;;;3.00;;
2672;SDS011;1346;51.558;6.996;2022-10-16T02:00:12;3.57;;;2.60;;
2672;SDS011;1346;51.558;6.996;2022-10-16T02:02:44;8.93;;;3.07;;
2672;SDS011;1346;51.558;6.996;2022-10-16T02:05:17;3.33;;;2.03;;
2672;SDS011;1346;51.558;6.996;2022-10-16T02:07:49;5.77;;;2.47;;
2672;SDS011;1346;51.558;6.996;2022-10-16T02:10:16;3.23;;;2.37;;
2672;SDS011;1346;51.558;6.996;2022-10-16T02:12:45;4.30;;;2.30;;
2672;SDS011;1346;51.558;6.996;2022-10-16T02:15:19;8.50;;;3.17;;
2672;SDS011;1346;51.558;6.996;2022-10-16T02:17:46;9.63;;;4.03;;
2672;SDS011;1346;51.558;6.996;2022-10-16T02:20:13;4.63;;;2.77;;
2672;SDS011;1346;51.558;6.996;2022-10-16T02:22:41;7.70;;;3.17;;
2672;SDS011;1346;51.558;6.996;2022-10-16T02:25:13;5.47;;;3.57;;
2672;SDS011;1346;51.558;6.996;2022-10-16T02:27:49;6.80;;;2.57;;
2672;SDS011;1346;51.558;6.996;2022-10-16T02:30:22;5.97;;;3.30;;
2672;SDS011;1346;51.558;6.996;2022-10-16T02:32:55;4.13;;;2.80;;
2672;SDS011;1346;51.558;6.996;2022-10-16T02:35:24;5.53;;;2.97;;
2672;SDS011;1346;51.558;6.996;2022-10-16T02:37:53;6.00;;;3.10;;
2672;SDS011;1346;51.558;6.996;2022-10-16T02:40:21;5.37;;;2.80;;
2672;SDS011;1346;51.558;6.996;2022-10-16T02:42:51;4.13;;;2.73;;
2672;SDS011;1346;51.558;6.996;2022-10-16T02:45:19;4.50;;;3.17;;
2672;SDS011;1346;51.558;6.996;2022-10-16T02:47:47;5.90;;;2.43;;
2672;SDS011;1346;51.558;6.996;2022-10-16T02:50:14;6.33;;;2.80;;
2672;SDS011;1346;51.558;6.996;2022-10-16T02:52:42;6.90;;;2.57;;
2672;SDS011;1346;51.558;6.996;2022-10-16T02:55:09;3.03;;;2.30;;
2672;SDS011;1346;51.558;6.996;2022-10-16T02:57:36;4.10;;;2.07;;
2672;SDS011;1346;51.558;6.996;2022-10-16T03:00:07;6.20;;;2.47;;
2672;SDS011;1346;51.558;6.996;2022-10-16T03:02:37;6.77;;;3.50;;
2672;SDS011;1346;51.558;6.996;2022-10-16T03:05:05;5.73;;;3.67;;
2672;SDS011;1346;51.558;6.996;2022-10-16T03:07:32;9.33;;;4.30;;
2672;SDS011;1346;51.558;6.996;2022-10-16T03:09:59;9.10;;;4.27;;
2672;SDS011;1346;51.558;6.996;2022-10-16T03:12:27;5.60;;;4.37;;
2672;SDS011;1346;51.558;6.996;2022-10-16T03:14:55;6.13;;;3.90;;
2672;SDS011;1346;51.558;6.996;2022-10-16T03:17:23;5.40;;;2.60;;
2672;SDS011;1346;51.558;6.996;2022-10-16T03:19:50;5.20;;;3.20;;
2672;SDS011;1346;51.558;6.996;2022-10-16T03:22:17;4.57;;;2.37;;
2672;SDS011;1346;51.558;6.996;2022-10-16T03:24:44;5.30;;;2.00;;
2672;SDS011;1346;51.558;6.996;2022-10-16T03:27:11;2.53;;;1.67;;
2672;SDS011;1346;51.558;6.996;2022-10-16T03:29:38;3.10;;;1.77;;
2672;SDS011;1346;51.558;6.996;2022-10-16T03:32:05;2.60;;;1.73;;
2672;SDS011;1346;51.558;6.996;2022-10-16T03:34:33;3.40;;;1.67;;
2672;SDS011;1346;51.558;6.996;2022-10-16T03:37:00;3.10;;;1.53;;
2672;SDS011;1346;51.558;6.996;2022-10-16T03:39:27;3.13;;;1.33;;
2672;SDS011;1346;51.558;6.996;2022-10-16T03:41:54;2.13;;;1.40;;
2672;SDS011;1346;51.558;6.996;2022-10-16T03:44:21;3.10;;;1.57;;
2672;SDS011;1346;51.558;6.996;2022-10-16T03:46:48;1.87;;;1.57;;
2672;SDS011;1346;51.558;6.996;2022-10-16T03:49:14;2.53;;;1.43;;
2672;SDS011;1346;51.558;6.996;2022-10-16T03:51:43;7.90;;;1.97;;
2672;SDS011;1346;51.558;6.996;2022-10-16T03:54:10;4.33;;;1.90;;
2672;SDS011;1346;51.558;6.996;2022-10-16T03:56:37;3.00;;;1.60;;
2672;SDS011;1346;51.558;6.996;2022-10-16T03:59:04;1.73;;;1.40;;
2672;SDS011;1346;51.558;6.996;2022-10-16T04:01:31;4.10;;;1.80;;
2672;SDS011;1346;51.558;6.996;2022-10-16T04:03:58;1.73;;;1.37;;
2672;SDS011;1346;51.558;6.996;2022-10-16T04:06:25;2.90;;;1.60;;
2672;SDS011;1346;51.558;6.996;2022-10-16T04:08:53;2.13;;;1.40;;
2672;SDS011;1346;51.558;6.996;2022-10-16T04:11:20;3.00;;;1.60;;
2672;SDS011;1346;51.558;6.996;2022-10-16T04:13:47;5.63;;;1.60;;
2672;SDS011;1346;51.558;6.996;2022-10-16T04:16:14;2.53;;;1.50;;
2672;SDS011;1346;51.558;6.996;2022-10-16T04:18:41;2.10;;;1.57;;
2672;SDS011;1346;51.558;6.996;2022-10-16T04:21:08;1.73;;;1.33;;
2672;SDS011;1346;51.558;6.996;2022-10-16T04:23:35;2.97;;;1.43;;
2672;SDS011;1346;51.558;6.996;2022-10-16T04:26:03;3.20;;;1.17;;
2672;SDS011;1346;51.558;6.996;2022-10-16T04:28:30;3.77;;;1.40;;
2672;SDS011;1346;51.558;6.996;2022-10-16T04:30:57;1.50;;;1.30;;
2672;SDS011;1346;51.558;6.996;2022-10-16T04:33:24;2.30;;;1.43;;
2672;SDS011;1346;51.558;6.996;2022-10-16T04:35:55;3.90;;;1.53;;
2672;SDS011;1346;51.558;6.996;2022-10-16T04:38:23;3.57;;;1.87;;
2672;SDS011;1346;51.558;6.996;2022-10-16T04:40:50;3.30;;;2.40;;
2672;SDS011;1346;51.558;6.996;2022-10-16T04:43:18;2.37;;;1.90;;
2672;SDS011;1346;51.558;6.996;2022-10-16T04:45:46;3.60;;;2.57;;
2672;SDS011;1346;51.558;6.996;2022-10-16T04:48:12;4.37;;;2.63;;
2672;SDS011;1346;51.558;6.996;2022-10-16T04:50:39;4.90;;;2.47;;
2672;SDS011;1346;51.558;6.996;2022-10-16T04:53:07;4.90;;;2.40;;
2672;SDS011;1346;51.558;6.996;2022-10-16T04:55:34;5.77;;;3.53;;
2672;SDS011;1346;51.558;6.996;2022-10-16T04:58:02;5.17;;;2.87;;
2672;SDS011;1346;51.558;6.996;2022-10-16T05:00:30;5.80;;;2.90;;
2672;SDS011;1346;51.558;6.996;2022-10-16T05:02:57;6.57;;;3.47;;
2672;SDS011;1346;51.558;6.996;2022-10-16T05:05:25;5.80;;;2.77;;
2672;SDS011;1346;51.558;6.996;2022-10-16T05:07:53;5.70;;;2.70;;
2672;SDS011;1346;51.558;6.996;2022-10-16T05:10:20;6.20;;;2.80;;
2672;SDS011;1346;51.558;6.996;2022-10-16T05:12:47;4.20;;;2.00;;
2672;SDS011;1346;51.558;6.996;2022-10-16T05:15:13;4.70;;;1.87;;
2672;SDS011;1346;51.558;6.996;2022-10-16T05:17:42;7.13;;;2.13;;
2672;SDS011;1346;51.558;6.996;2022-10-16T05:20:09;2.87;;;2.20;;
2672;SDS011;1346;51.558;6.996;2022-10-16T05:22:36;2.77;;;1.83;;
2672;SDS011;1346;51.558;6.996;2022-10-16T05:25:03;3.87;;;2.13;;
2672;SDS011;1346;51.558;6.996;2022-10-16T05:27:31;3.17;;;1.90;;
2672;SDS011;1346;51.558;6.996;2022-10-16T05:29:58;2.73;;;2.27;;
2672;SDS011;1346;51.558;6.996;2022-10-16T05:32:24;3.00;;;2.13;;
2672;SDS011;1346;51.558;6.996;2022-10-16T05:34:53;3.83;;;2.20;;
2672;SDS011;1346;51.558;6.996;2022-10-16T05:37:19;4.00;;;2.17;;
2672;SDS011;1346;51.558;6.996;2022-10-16T05:39:46;8.43;;;2.00;;
2672;SDS011;1346;51.558;6.996;2022-10-16T05:42:13;3.53;;;2.03;;
2672;SDS011;1346;51.558;6.996;2022-10-16T05:44:40;3.40;;;1.90;;
2672;SDS011;1346;51.558;6.996;2022-10-16T05:47:07;4.53;;;1.43;;
2672;SDS011;1346;51.558;6.996;2022-10-16T05:49:35;2.57;;;1.90;;
2672;SDS011;1346;51.558;6.996;2022-10-16T05:52:03;3.63;;;1.53;;
2672;SDS011;1346;51.558;6.996;2022-10-16T05:54:30;2.10;;;1.37;;
2672;SDS011;1346;51.558;6.996;2022-10-16T05:56:57;4.97;;;1.80;;
2672;SDS011;1346;51.558;6.996;2022-10-16T05:59:24;5.97;;;1.70;;
2672;SDS011;1346;51.558;6.996;2022-10-16T06:01:51;3.23;;;2.10;;
2672;SDS011;1346;51.558;6.996;2022-10-16T06:04:18;3.20;;;1.57;;
2672;SDS011;1346;51.558;6.996;2022-10-16T06:06:45;3.63;;;1.40;;
2672;SDS011;1346;51.558;6.996;2022-10-16T06:09:13;6.07;;;2.30;;
2672;SDS011;1346;51.558;6.996;2022-10-16T06:11:40;3.67;;;1.80;;
2672;SDS011;1346;51.558;6.996;2022-10-16T06:14:08;3.00;;;1.63;;
2672;SDS011;1346;51.558;6.996;2022-10-16T06:16:35;3.90;;;1.90;;
2672;SDS011;1346;51.558;6.996;2022-10-16T06:19:03;2.13;;;1.70;;
2672;SDS011;1346;51.558;6.996;2022-10-16T06:21:33;3.70;;;1.80;;
2672;SDS011;1346;51.558;6.996;2022-10-16T06:24:00;2.70;;;1.77;;
2672;SDS011;1346;51.558;6.996;2022-10-16T06:26:29;3.23;;;1.90;;
2672;SDS011;1346;51.558;6.996;2022-10-16T06:28:57;10.10;;;1.90;;
2672;SDS011;1346;51.558;6.996;2022-10-16T06:31:25;2.70;;;1.93;;
2672;SDS011;1346;51.558;6.996;2022-10-16T06:33:55;3.23;;;1.77;;
2672;SDS011;1346;51.558;6.996;2022-10-16T06:36:23;2.30;;;1.80;;
2672;SDS011;1346;51.558;6.996;2022-10-16T06:38:50;4.33;;;1.90;;
2672;SDS011;1346;51.558;6.996;2022-10-16T06:41:18;3.37;;;1.87;;
2672;SDS011;1346;51.558;6.996;2022-10-16T06:43:49;8.10;;;1.97;;
2672;SDS011;1346;51.558;6.996;2022-10-16T06:46:18;4.73;;;1.53;;
2672;SDS011;1346;51.558;6.996;2022-10-16T06:48:47;2.33;;;1.70;;
2672;SDS011;1346;51.558;6.996;2022-10-16T06:51:15;2.83;;;1.63;;
2672;SDS011;1346;51.558;6.996;2022-10-16T06:53:44;3.60;;;1.60;;
2672;SDS011;1346;51.558;6.996;2022-10-16T06:56:14;2.40;;;1.93;;
2672;SDS011;1346;51.558;6.996;2022-10-16T06:58:46;3.17;;;1.67;;
2672;SDS011;1346;51.558;6.996;2022-10-16T07:01:15;3.97;;;2.30;;
2672;SDS011;1346;51.558;6.996;2022-10-16T07:03:44;3.00;;;1.93;;
2672;SDS011;1346;51.558;6.996;2022-10-16T07:06:13;2.37;;;1.90;;
2672;SDS011;1346;51.558;6.996;2022-10-16T07:08:42;2.67;;;1.80;;
2672;SDS011;1346;51.558;6.996;2022-10-16T07:11:12;9.13;;;2.73;;
2672;SDS011;1346;51.558;6.996;2022-10-16T07:13:41;4.53;;;1.73;;
2672;SDS011;1346;51.558;6.996;2022-10-16T07:16:11;3.87;;;2.00;;
2672;SDS011;1346;51.558;6.996;2022-10-16T07:18:41;3.40;;;2.30;;
2672;SDS011;1346;51.558;6.996;2022-10-16T07:21:12;2.20;;;2.00;;
2672;SDS011;1346;51.558;6.996;2022-10-16T07:23:41;4.00;;;2.53;;
2672;SDS011;1346;51.558;6.996;2022-10-16T07:26:09;3.20;;;2.50;;
2672;SDS011;1346;51.558;6.996;2022-10-16T07:28:36;4.07;;;2.30;;
2672;SDS011;1346;51.558;6.996;2022-10-16T07:31:05;10.00;;;2.40;;
2672;SDS011;1346;51.558;6.996;2022-10-16T07:33:35;4.70;;;2.10;;
2672;SDS011;1346;51.558;6.996;2022-10-16T07:36:05;3.37;;;2.37;;
2672;SDS011;1346;51.558;6.996;2022-10-16T07:38:34;2.97;;;2.30;;
2672;SDS011;1346;51.558;6.996;2022-10-16T07:41:01;5.13;;;2.40;;
2672;SDS011;1346;51.558;6.996;2022-10-16T07:43:30;4.47;;;2.20;;
2672;SDS011;1346;51.558;6.996;2022-10-16T07:45:57;9.63;;;2.70;;
2672;SDS011;1346;51.558;6.996;2022-10-16T07:48:26;5.23;;;2.57;;
2672;SDS011;1346;51.558;6.996;2022-10-16T07:50:56;2.47;;;2.00;;
2672;SDS011;1346;51.558;6.996;2022-10-16T07:53:25;4.30;;;2.50;;
2672;SDS011;1346;51.558;6.996;2022-10-16T07:55:56;4.40;;;2.00;;
2672;SDS011;1346;51.558;6.996;2022-10-16T07:58:24;7.13;;;2.60;;
2672;SDS011;1346;51.558;6.996;2022-10-16T08:00:51;5.83;;;2.40;;
2672;SDS011;1346;51.558;6.996;2022-10-16T08:03:18;2.47;;;2.00;;
2672;SDS011;1346;51.558;6.996;2022-10-16T08:05:45;3.83;;;2.20;;
2672;SDS011;1346;51.558;6.996;2022-10-16T08:08:12;3.03;;;2.13;;
2672;SDS011;1346;51.558;6.996;2022-10-16T08:10:42;3.37;;;2.20;;
2672;SDS011;1346;51.558;6.996;2022-10-16T08:13:10;3.83;;;1.63;;
2672;SDS011;1346;51.558;6.996;2022-10-16T08:15:39;2.70;;;2.10;;
2672;SDS011;1346;51.558;6.996;2022-10-16T08:18:06;3.93;;;2.17;;
2672;SDS011;1346;51.558;6.996;2022-10-16T08:20:33;6.10;;;2.20;;
2672;SDS011;1346;51.558;6.996;2022-10-16T08:23:00;2.20;;;1.70;;
2672;SDS011;1346;51.558;6.996;2022-10-16T08:25:27;5.00;;;1.80;;
2672;SDS011;1346;51.558;6.996;2022-10-16T08:27:56;4.13;;;2.00;;
2672;SDS011;1346;51.558;6.996;2022-10-16T08:30:23;3.00;;;1.90;;
2672;SDS011;1346;51.558;6.996;2022-10-16T08:32:50;5.20;;;1.93;;
2672;SDS011;1346;51.558;6.996;2022-10-16T08:35:18;3.40;;;2.10;;
2672;SDS011;1346;51.558;6.996;2022-10-16T08:37:45;11.70;;;1.87;;
2672;SDS011;1346;51.558;6.996;2022-10-16T08:40:15;7.50;;;2.00;;
2672;SDS011;1346;51.558;6.996;2022-10-16T08:43:00;5.20;;;2.10;;
2672;SDS011;1346;51.558;6.996;2022-10-16T08:48:45;7.77;;;2.17;;
2672;SDS011;1346;51.558;6.996;2022-10-16T08:51:16;4.60;;;2.00;;
2672;SDS011;1346;51.558;6.996;2022-10-16T08:53:55;4.97;;;1.60;;
2672;SDS011;1346;51.558;6.996;2022-10-16T08:56:24;4.60;;;2.13;;
2672;SDS011;1346;51.558;6.996;2022-10-16T08:58:52;3.53;;;1.83;;
2672;SDS011;1346;51.558;6.996;2022-10-16T09:01:21;7.23;;;4.13;;
2672;SDS011;1346;51.558;6.996;2022-10-16T09:03:58;7.23;;;3.33;;
2672;SDS011;1346;51.558;6.996;2022-10-16T09:07:11;8.43;;;2.80;;
2672;SDS011;1346;51.558;6.996;2022-10-16T09:09:49;4.20;;;1.50;;
2672;SDS011;1346;51.558;6.996;2022-10-16T09:12:28;4.73;;;2.03;;
2672;SDS011;1346;51.558;6.996;2022-10-16T09:15:06;4.97;;;1.50;;
2672;SDS011;1346;51.558;6.996;2022-10-16T09:17:45;8.57;;;3.93;;
2672;SDS011;1346;51.558;6.996;2022-10-16T09:20:27;8.03;;;1.97;;
2672;SDS011;1346;51.558;6.996;2022-10-16T09:23:12;6.40;;;1.93;;
2672;SDS011;1346;51.558;6.996;2022-10-16T09:25:44;3.80;;;1.60;;
2672;SDS011;1346;51.558;6.996;2022-10-16T09:28:16;3.30;;;1.60;;
2672;SDS011;1346;51.558;6.996;2022-10-16T09:30:44;2.97;;;1.70;;
2672;SDS011;1346;51.558;6.996;2022-10-16T09:33:13;6.40;;;1.80;;
2672;SDS011;1346;51.558;6.996;2022-10-16T09:35:44;11.23;;;1.83;;
2672;SDS011;1346;51.558;6.996;2022-10-16T09:38:21;3.00;;;1.43;;
2672;SDS011;1346;51.558;6.996;2022-10-16T09:40:52;3.77;;;2.27;;
2672;SDS011;1346;51.558;6.996;2022-10-16T09:43:21;4.13;;;1.77;;
2672;SDS011;1346;51.558;6.996;2022-10-16T09:45:53;5.17;;;2.10;;
2672;SDS011;1346;51.558;6.996;2022-10-16T09:48:22;6.83;;;1.67;;
2672;SDS011;1346;51.558;6.996;2022-10-16T09:50:57;5.37;;;1.30;;
2672;SDS011;1346;51.558;6.996;2022-10-16T09:53:36;4.47;;;1.50;;
2672;SDS011;1346;51.558;6.996;2022-10-16T09:56:11;1.90;;;1.40;;
2672;SDS011;1346;51.558;6.996;2022-10-16T09:58:49;3.63;;;1.53;;
2672;SDS011;1346;51.558;6.996;2022-10-16T10:01:17;2.70;;;1.30;;
2672;SDS011;1346;51.558;6.996;2022-10-16T10:03:45;2.80;;;1.60;;
2672;SDS011;1346;51.558;6.996;2022-10-16T10:06:16;4.60;;;1.67;;
2672;SDS011;1346;51.558;6.996;2022-10-16T10:08:54;4.37;;;1.50;;
2672;SDS011;1346;51.558;6.996;2022-10-16T10:11:45;4.70;;;1.30;;
2672;SDS011;1346;51.558;6.996;2022-10-16T10:14:17;1.70;;;1.00;;
2672;SDS011;1346;51.558;6.996;2022-10-16T10:16:52;4.07;;;1.60;;
2672;SDS011;1346;51.558;6.996;2022-10-16T10:19:37;2.93;;;1.00;;
2672;SDS011;1346;51.558;6.996;2022-10-16T10:22:13;2.73;;;1.10;;
2672;SDS011;1346;51.558;6.996;2022-10-16T10:24:54;6.53;;;2.00;;
2672;SDS011;1346;51.558;6.996;2022-10-16T10:27:46;3.30;;;1.90;;
2672;SDS011;1346;51.558;6.996;2022-10-16T10:30:27;4.50;;;1.77;;
2672;SDS011;1346;51.558;6.996;2022-10-16T10:33:08;3.47;;;1.93;;
2672;SDS011;1346;51.558;6.996;2022-10-16T10:35:48;3.40;;;1.73;;
2672;SDS011;1346;51.558;6.996;2022-10-16T10:38:27;2.90;;;1.77;;
2672;SDS011;1346;51.558;6.996;2022-10-16T10:41:09;2.20;;;1.30;;
2672;SDS011;1346;51.558;6.996;2022-10-16T10:43:57;3.80;;;1.50;;
2672;SDS011;1346;51.558;6.996;2022-10-16T10:46:34;5.37;;;2.30;;
2672;SDS011;1346;51.558;6.996;2022-10-16T10:49:13;4.00;;;2.00;;
2672;SDS011;1346;51.558;6.996;2022-10-16T10:52:00;4.70;;;2.20;;
2672;SDS011;1346;51.558;6.996;2022-10-16T10:54:40;2.87;;;2.00;;
2672;SDS011;1346;51.558;6.996;2022-10-16T10:57:17;6.77;;;2.50;;
2672;SDS011;1346;51.558;6.996;2022-10-16T10:59:58;3.90;;;1.93;;
2672;SDS011;1346;51.558;6.996;2022-10-16T11:02:40;3.90;;;2.30;;
2672;SDS011;1346;51.558;6.996;2022-10-16T11:08:06;4.33;;;1.40;;
2672;SDS011;1346;51.558;6.996;2022-10-16T11:10:42;6.07;;;1.77;;
2672;SDS011;1346;51.558;6.996;2022-10-16T11:13:18;3.83;;;1.73;;
2672;SDS011;1346;51.558;6.996;2022-10-16T11:15:57;2.70;;;1.50;;
2672;SDS011;1346;51.558;6.996;2022-10-16T11:18:30;4.70;;;1.77;;
2672;SDS011;1346;51.558;6.996;2022-10-16T11:21:11;3.03;;;1.20;;
2672;SDS011;1346;51.558;6.996;2022-10-16T11:23:42;6.77;;;1.23;;
2672;SDS011;1346;51.558;6.996;2022-10-16T11:26:16;3.00;;;1.50;;
2672;SDS011;1346;51.558;6.996;2022-10-16T11:28:47;4.40;;;1.20;;
2672;SDS011;1346;51.558;6.996;2022-10-16T11:31:19;3.20;;;1.33;;
2672;SDS011;1346;51.558;6.996;2022-10-16T11:33:55;2.50;;;1.00;;
2672;SDS011;1346;51.558;6.996;2022-10-16T11:36:31;4.80;;;1.50;;
2672;SDS011;1346;51.558;6.996;2022-10-16T11:39:07;2.60;;;1.20;;
2672;SDS011;1346;51.558;6.996;2022-10-16T11:41:45;3.27;;;1.40;;
2672;SDS011;1346;51.558;6.996;2022-10-16T11:44:19;2.87;;;1.40;;
2672;SDS011;1346;51.558;6.996;2022-10-16T11:47:01;4.97;;;1.60;;
2672;SDS011;1346;51.558;6.996;2022-10-16T11:49:39;4.20;;;1.03;;
2672;SDS011;1346;51.558;6.996;2022-10-16T11:52:10;3.13;;;0.90;;
2672;SDS011;1346;51.558;6.996;2022-10-16T11:54:44;1.40;;;0.60;;
2672;SDS011;1346;51.558;6.996;2022-10-16T11:57:16;1.87;;;0.80;;
2672;SDS011;1346;51.558;6.996;2022-10-16T11:59:48;2.97;;;1.03;;
2672;SDS011;1346;51.558;6.996;2022-10-16T12:02:33;4.60;;;1.00;;
2672;SDS011;1346;51.558;6.996;2022-10-16T12:05:15;5.70;;;1.20;;
2672;SDS011;1346;51.558;6.996;2022-10-16T12:07:53;3.87;;;1.47;;
2672;SDS011;1346;51.558;6.996;2022-10-16T12:10:32;4.20;;;1.40;;
2672;SDS011;1346;51.558;6.996;2022-10-16T12:13:01;3.80;;;0.93;;
2672;SDS011;1346;51.558;6.996;2022-10-16T12:15:30;2.17;;;1.23;;
2672;SDS011;1346;51.558;6.996;2022-10-16T12:18:01;3.83;;;1.10;;
2672;SDS011;1346;51.558;6.996;2022-10-16T12:20:29;4.20;;;1.30;;
2672;SDS011;1346;51.558;6.996;2022-10-16T12:22:58;2.00;;;1.00;;
2672;SDS011;1346;51.558;6.996;2022-10-16T12:25:29;2.60;;;0.90;;
2672;SDS011;1346;51.558;6.996;2022-10-16T12:28:01;2.13;;;1.00;;
2672;SDS011;1346;51.558;6.996;2022-10-16T12:30:32;5.33;;;1.40;;
2672;SDS011;1346;51.558;6.996;2022-10-16T12:33:03;3.73;;;1.30;;
2672;SDS011;1346;51.558;6.996;2022-10-16T12:35:43;1.87;;;1.00;;
2672;SDS011;1346;51.558;6.996;2022-10-16T12:38:17;3.50;;;0.90;;
2672;SDS011;1346;51.558;6.996;2022-10-16T12:40:47;4.87;;;1.53;;
2672;SDS011;1346;51.558;6.996;2022-10-16T12:43:26;5.17;;;1.10;;
2672;SDS011;1346;51.558;6.996;2022-10-16T12:46:21;2.33;;;0.90;;
2672;SDS011;1346;51.558;6.996;2022-10-16T12:49:06;5.30;;;1.07;;
2672;SDS011;1346;51.558;6.996;2022-10-16T12:51:54;3.67;;;1.33;;
2672;SDS011;1346;51.558;6.996;2022-10-16T12:54:22;2.50;;;1.17;;
2672;SDS011;1346;51.558;6.996;2022-10-16T12:56:58;2.00;;;0.90;;
2672;SDS011;1346;51.558;6.996;2022-10-16T12:59:44;4.50;;;1.53;;
2672;SDS011;1346;51.558;6.996;2022-10-16T13:02:27;1.50;;;0.77;;
2672;SDS011;1346;51.558;6.996;2022-10-16T13:05:25;3.60;;;1.50;;
2672;SDS011;1346;51.558;6.996;2022-10-16T13:08:05;2.23;;;0.90;;
2672;SDS011;1346;51.558;6.996;2022-10-16T13:10:53;3.87;;;1.00;;
2672;SDS011;1346;51.558;6.996;2022-10-16T13:13:35;3.10;;;1.50;;
2672;SDS011;1346;51.558;6.996;2022-10-16T13:16:26;4.13;;;0.97;;
2672;SDS011;1346;51.558;6.996;2022-10-16T13:19:09;5.73;;;1.30;;
2672;SDS011;1346;51.558;6.996;2022-10-16T13:21:49;7.73;;;1.80;;
2672;SDS011;1346;51.558;6.996;2022-10-16T13:24:28;2.20;;;0.90;;
2672;SDS011;1346;51.558;6.996;2022-10-16T13:27:18;1.17;;;0.60;;
2672;SDS011;1346;51.558;6.996;2022-10-16T13:30:00;3.10;;;0.93;;
2672;SDS011;1346;51.558;6.996;2022-10-16T13:32:36;4.87;;;1.10;;
2672;SDS011;1346;51.558;6.996;2022-10-16T13:35:15;3.90;;;1.13;;
2672;SDS011;1346;51.558;6.996;2022-10-16T13:37:48;2.73;;;1.10;;
2672;SDS011;1346;51.558;6.996;2022-10-16T13:40:18;3.17;;;1.07;;
2672;SDS011;1346;51.558;6.996;2022-10-16T13:42:48;2.10;;;1.00;;
2672;SDS011;1346;51.558;6.996;2022-10-16T13:45:19;3.60;;;1.30;;
2672;SDS011;1346;51.558;6.996;2022-10-16T13:47:48;5.47;;;1.03;;
2672;SDS011;1346;51.558;6.996;2022-10-16T13:50:16;2.50;;;1.27;;
2672;SDS011;1346;51.558;6.996;2022-10-16T13:52:44;3.33;;;1.40;;
2672;SDS011;1346;51.558;6.996;2022-10-16T13:55:13;3.43;;;1.40;;
2672;SDS011;1346;51.558;6.996;2022-10-16T13:57:42;3.30;;;1.60;;
2672;SDS011;1346;51.558;6.996;2022-10-16T14:00:20;5.43;;;1.50;;
2672;SDS011;1346;51.558;6.996;2022-10-16T14:02:51;3.83;;;1.23;;
2672;SDS011;1346;51.558;6.996;2022-10-16T14:05:24;2.10;;;1.10;;
2672;SDS011;1346;51.558;6.996;2022-10-16T14:07:51;3.07;;;1.30;;
2672;SDS011;1346;51.558;6.996;2022-10-16T14:10:23;2.83;;;1.37;;
2672;SDS011;1346;51.558;6.996;2022-10-16T14:12:55;2.50;;;1.20;;
2672;SDS011;1346;51.558;6.996;2022-10-16T14:15:24;2.27;;;1.27;;
2672;SDS011;1346;51.558;6.996;2022-10-16T14:17:51;2.37;;;1.00;;
2672;SDS011;1346;51.558;6.996;2022-10-16T14:20:20;4.10;;;1.40;;
2672;SDS011;1346;51.558;6.996;2022-10-16T14:22:57;7.77;;;1.30;;
2672;SDS011;1346;51.558;6.996;2022-10-16T14:25:28;7.07;;;1.90;;
2672;SDS011;1346;51.558;6.996;2022-10-16T14:27:59;3.73;;;1.83;;
2672;SDS011;1346;51.558;6.996;2022-10-16T14:30:29;3.57;;;1.40;;
2672;SDS011;1346;51.558;6.996;2022-10-16T14:32:58;4.10;;;1.27;;
2672;SDS011;1346;51.558;6.996;2022-10-16T14:35:28;5.80;;;1.00;;
2672;SDS011;1346;51.558;6.996;2022-10-16T14:37:58;2.97;;;0.93;;
2672;SDS011;1346;51.558;6.996;2022-10-16T14:40:28;3.27;;;1.20;;
2672;SDS011;1346;51.558;6.996;2022-10-16T14:42:57;2.43;;;1.07;;
2672;SDS011;1346;51.558;6.996;2022-10-16T14:45:27;1.23;;;0.63;;
2672;SDS011;1346;51.558;6.996;2022-10-16T14:47:57;3.50;;;1.50;;
2672;SDS011;1346;51.558;6.996;2022-10-16T14:50:26;2.37;;;0.70;;
2672;SDS011;1346;51.558;6.996;2022-10-16T14:52:53;4.50;;;1.23;;
2672;SDS011;1346;51.558;6.996;2022-10-16T14:55:21;4.00;;;1.00;;
2672;SDS011;1346;51.558;6.996;2022-10-16T14:57:49;2.60;;;0.87;;
2672;SDS011;1346;51.558;6.996;2022-10-16T15:00:18;3.17;;;1.00;;
2672;SDS011;1346;51.558;6.996;2022-10-16T15:02:48;3.67;;;1.30;;
2672;SDS011;1346;51.558;6.996;2022-10-16T15:05:17;1.80;;;1.00;;
2672;SDS011;1346;51.558;6.996;2022-10-16T15:07:47;4.10;;;1.30;;
2672;SDS011;1346;51.558;6.996;2022-10-16T15:10:15;3.03;;;1.17;;
2672;SDS011;1346;51.558;6.996;2022-10-16T15:12:43;1.80;;;1.10;;
2672;SDS011;1346;51.558;6.996;2022-10-16T15:18:02;3.17;;;1.10;;
2672;SDS011;1346;51.558;6.996;2022-10-16T15:20:30;2.70;;;1.03;;
2672;SDS011;1346;51.558;6.996;2022-10-16T15:23:00;2.40;;;1.03;;
2672;SDS011;1346;51.558;6.996;2022-10-16T15:25:32;3.40;;;1.33;;
2672;SDS011;1346;51.558;6.996;2022-10-16T15:28:04;1.87;;;1.20;;
2672;SDS011;1346;51.558;6.996;2022-10-16T15:30:34;2.07;;;1.10;;
2672;SDS011;1346;51.558;6.996;2022-10-16T15:33:02;1.93;;;1.17;;
2672;SDS011;1346;51.558;6.996;2022-10-16T15:35:30;6.27;;;1.10;;
2672;SDS011;1346;51.558;6.996;2022-10-16T15:37:57;2.03;;;1.20;;
2672;SDS011;1346;51.558;6.996;2022-10-16T15:40:24;4.67;;;1.60;;
2672;SDS011;1346;51.558;6.996;2022-10-16T15:42:51;1.60;;;0.90;;
2672;SDS011;1346;51.558;6.996;2022-10-16T15:45:18;2.03;;;1.13;;
2672;SDS011;1346;51.558;6.996;2022-10-16T15:47:46;1.40;;;0.83;;
2672;SDS011;1346;51.558;6.996;2022-10-16T15:50:14;3.93;;;1.30;;